Time;durP1;ratioP1;P1;durP2;ratioP2;P2;SDS_P1;SDS_P2;PMS_P1;PMS_P2;Temp;Humidity;BMP_temperature;BMP_pressure;BME280_temperature;BME280_humidity;BME280_pressure;Samples;Min_cycle;Max_cycle;Signal;HPM_P1;HPM_P2
2022/06/30 00:00:57;;;;;;;1999.90;999.90;;;;;;;20.84;100.00;99417.69;5061735;28;20052;-54
2022/06/30 00:03:41;;;;;;;1999.90;999.90;;;;;;;20.80;100.00;99405.56;5063539;28;21409;-53
2022/06/30 00:06:26;;;;;;;1999.90;999.90;;;;;;;20.80;100.00;99405.56;5065674;28;20125;-54
2022/06/30 00:09:10;;;;;;;1999.90;999.90;;;;;;;20.81;100.00;99406.41;5068367;28;20055;-54
2022/06/30 00:11:55;;;;;;;1999.90;999.90;;;;;;;20.83;100.00;99410.69;5066928;28;20047;-54
2022/06/30 00:14:39;;;;;;;1999.90;999.90;;;;;;;20.73;100.00;99423.81;5068019;28;20118;-54
2022/06/30 00:17:24;;;;;;;1999.90;999.90;;;;;;;20.74;100.00;99435.28;5065720;28;20079;-54
2022/06/30 00:20:09;;;;;;;1999.90;999.90;;;;;;;20.83;100.00;99494.97;5064615;28;20045;-54
2022/06/30 00:22:54;;;;;;;1999.90;999.90;;;;;;;20.51;100.00;99540.69;5065058;28;20040;-54
2022/06/30 00:25:38;;;;;;;1999.90;999.90;;;;;;;20.53;100.00;99552.91;5064414;28;20048;-54
2022/06/30 00:28:23;;;;;;;1999.90;999.90;;;;;;;20.53;100.00;99563.56;5066094;28;20044;-54
2022/06/30 00:31:08;;;;;;;1999.90;999.90;;;;;;;20.59;100.00;99553.44;5063587;28;20056;-54
2022/06/30 00:33:53;;;;;;;1999.90;999.90;;;;;;;20.51;100.00;99514.94;5064865;28;20057;-54
2022/06/30 00:36:37;;;;;;;1999.90;999.90;;;;;;;20.64;100.00;99522.91;5065505;28;20042;-54
2022/06/30 00:39:22;;;;;;;1999.90;999.90;;;;;;;20.57;100.00;99560.69;5065032;28;20509;-54
2022/06/30 00:42:06;;;;;;;1999.90;999.90;;;;;;;20.60;100.00;99603.88;5063020;28;20544;-54
2022/06/30 00:44:51;;;;;;;1999.90;999.90;;;;;;;20.50;100.00;99606.28;5065873;28;20498;-55
2022/06/30 00:47:36;;;;;;;1999.90;999.90;;;;;;;20.14;100.00;99614.97;5064428;28;20095;-55
2022/06/30 00:50:20;;;;;;;1999.90;999.90;;;;;;;19.83;100.00;99632.16;5065544;28;20049;-55
2022/06/30 00:53:07;;;;;;;1999.90;999.90;;;;;;;19.52;100.00;99619.97;5066128;28;20090;-56
2022/06/30 00:55:53;;;;;;;1999.90;999.90;;;;;;;19.11;100.00;99620.84;5066645;28;20143;-56
2022/06/30 00:58:39;;;;;;;1999.90;999.90;;;;;;;18.85;100.00;99623.31;5067064;28;20109;-55
2022/06/30 01:01:26;;;;;;;1999.90;999.90;;;;;;;18.58;100.00;99604.59;5063127;28;20048;-54
2022/06/30 01:04:12;;;;;;;1999.90;999.90;;;;;;;18.38;100.00;99604.97;5062810;28;20133;-55
2022/06/30 01:06:58;;;;;;;1999.90;999.90;;;;;;;18.40;100.00;99609.25;5065606;28;20044;-54
2022/06/30 01:12:47;;;;;;;1999.90;999.90;;;;;;;18.41;100.00;99563.22;5065005;28;20053;-55
2022/06/30 01:15:31;;;;;;;1999.90;999.90;;;;;;;18.31;100.00;99558.56;5066789;28;20144;-55
2022/06/30 01:18:16;;;;;;;1999.90;999.90;;;;;;;18.43;100.00;99544.56;5064502;28;20101;-55
2022/06/30 01:21:00;;;;;;;1999.90;999.90;;;;;;;18.27;100.00;99531.41;5064552;28;20051;-54
2022/06/30 01:23:45;;;;;;;1999.90;999.90;;;;;;;18.33;100.00;99512.47;5064434;28;20842;-55
2022/06/30 01:26:30;;;;;;;1999.90;999.90;;;;;;;18.45;100.00;99487.00;5064194;28;20087;-54
2022/06/30 01:29:14;;;;;;;1999.90;999.90;;;;;;;18.45;100.00;99477.22;5060042;28;20055;-54
2022/06/30 01:31:58;;;;;;;1999.90;999.90;;;;;;;18.52;100.00;99498.06;5061111;28;20206;-54
2022/06/30 01:34:43;;;;;;;1999.90;999.90;;;;;;;18.40;100.00;99510.31;5061366;28;20475;-54
2022/06/30 01:37:43;;;;;;;1999.90;999.90;;;;;;;18.42;100.00;99517.19;5062367;28;20098;-55
2022/06/30 01:40:31;;;;;;;1999.90;999.90;;;;;;;18.28;100.00;99522.50;5060533;28;20060;-54
2022/06/30 01:43:15;;;;;;;1999.90;999.90;;;;;;;18.34;100.00;99511.53;5061839;28;20052;-54
2022/06/30 01:46:00;;;;;;;1999.90;999.90;;;;;;;18.21;100.00;99503.47;5062255;28;20049;-54
2022/06/30 01:48:44;;;;;;;1999.90;999.90;;;;;;;18.29;100.00;99508.28;5061413;28;20036;-53
2022/06/30 01:51:29;;;;;;;1999.90;999.90;;;;;;;18.18;100.00;99501.00;5059704;28;20102;-54
2022/06/30 01:54:13;;;;;;;1999.90;999.90;;;;;;;18.14;100.00;99504.78;5060907;28;20434;-53
2022/06/30 01:56:58;;;;;;;1999.90;999.90;;;;;;;18.16;100.00;99489.63;5061971;28;20502;-54
2022/06/30 01:59:43;;;;;;;1999.90;999.90;;;;;;;18.19;100.00;99501.84;5060878;28;20041;-55
2022/06/30 02:02:27;;;;;;;1999.90;999.90;;;;;;;18.13;100.00;99518.13;5065151;28;20633;-54
2022/06/30 02:05:12;;;;;;;1999.90;999.90;;;;;;;18.06;100.00;99552.09;5059800;28;20085;-53
2022/06/30 02:07:56;;;;;;;1999.90;999.90;;;;;;;18.09;100.00;99585.50;5060851;28;21955;-53
2022/06/30 02:10:40;;;;;;;1999.90;999.90;;;;;;;18.18;100.00;99590.28;5060995;28;20051;-54
2022/06/30 02:13:25;;;;;;;1999.90;999.90;;;;;;;18.34;100.00;99582.25;5059802;28;20059;-54
2022/06/30 02:16:09;;;;;;;1999.90;999.90;;;;;;;18.45;100.00;99598.34;5059297;28;20119;-54
2022/06/30 02:18:54;;;;;;;1999.90;999.90;;;;;;;18.37;100.00;99620.03;5059034;28;20061;-54
2022/06/30 02:21:38;;;;;;;1999.90;999.90;;;;;;;18.38;100.00;99631.50;5061922;28;20167;-53
2022/06/30 02:24:23;;;;;;;1999.90;999.90;;;;;;;18.30;100.00;99639.91;5064657;28;20776;-54
2022/06/30 02:27:08;;;;;;;1999.90;999.90;;;;;;;18.36;100.00;99649.28;5062772;28;20063;-55
2022/06/30 02:29:53;;;;;;;1999.90;999.90;;;;;;;18.33;100.00;99649.44;5060779;28;20090;-53
2022/06/30 02:32:38;;;;;;;1999.90;999.90;;;;;;;18.27;100.00;99633.94;5060578;28;20063;-54
2022/06/30 02:35:22;;;;;;;1999.90;999.90;;;;;;;18.38;100.00;99597.88;5062256;28;20072;-54
2022/06/30 02:38:10;;;;;;;1999.90;999.90;;;;;;;18.24;100.00;99578.47;5059943;28;20068;-54
2022/06/30 02:40:55;;;;;;;1999.90;999.90;;;;;;;18.31;100.00;99580.63;5058141;28;20877;-55
2022/06/30 02:43:39;;;;;;;1999.90;999.90;;;;;;;18.27;100.00;99587.06;5062350;28;20059;-54
2022/06/30 02:46:24;;;;;;;1999.90;999.90;;;;;;;18.30;100.00;99581.59;5061460;28;20052;-53
2022/06/30 02:49:09;;;;;;;1999.90;999.90;;;;;;;18.38;100.00;99563.41;5060036;28;20146;-54
2022/06/30 02:51:53;;;;;;;1999.90;999.90;;;;;;;18.41;100.00;99555.25;5061792;28;20066;-53
2022/06/30 02:54:38;;;;;;;1999.90;999.90;;;;;;;18.50;100.00;99564.47;5059054;28;20403;-54
2022/06/30 02:57:23;;;;;;;1999.90;999.90;;;;;;;18.48;100.00;99573.44;5062551;28;20053;-54
2022/06/30 03:00:10;;;;;;;1999.90;999.90;;;;;;;18.51;100.00;99534.34;5065274;28;20047;-54
2022/06/30 03:02:57;;;;;;;1999.90;999.90;;;;;;;18.39;100.00;99488.25;5061792;28;20055;-54
2022/06/30 03:05:41;;;;;;;1999.90;999.90;;;;;;;18.29;100.00;99468.53;5060171;28;20048;-54
2022/06/30 03:08:26;;;;;;;1999.90;999.90;;;;;;;18.23;100.00;99476.84;5065048;28;20045;-54
2022/06/30 03:11:16;;;;;;;1999.90;999.90;;;;;;;18.25;100.00;99484.72;5061414;28;20102;-53
2022/06/30 03:14:00;;;;;;;1999.90;999.90;;;;;;;18.29;100.00;99497.69;5064759;28;20051;-54
2022/06/30 03:16:45;;;;;;;1999.90;999.90;;;;;;;18.45;100.00;99500.25;5060570;28;20163;-53
2022/06/30 03:19:30;;;;;;;1999.90;999.90;;;;;;;18.49;100.00;99480.56;5059205;28;20102;-54
2022/06/30 03:22:14;;;;;;;1999.90;999.90;;;;;;;18.30;100.00;99493.25;5063991;28;20102;-53
2022/06/30 03:24:59;;;;;;;1999.90;999.90;;;;;;;18.25;100.00;99514.72;5063409;28;20950;-54
2022/06/30 03:27:43;;;;;;;1999.90;999.90;;;;;;;18.42;100.00;99511.03;5063547;28;20434;-53
2022/06/30 03:30:28;;;;;;;1999.90;999.90;;;;;;;18.41;100.00;99483.69;5064704;28;20094;-53
2022/06/30 03:33:12;;;;;;;1999.90;999.90;;;;;;;18.39;100.00;99495.31;5065466;28;20047;-53
2022/06/30 03:35:57;;;;;;;1999.90;999.90;;;;;;;18.55;100.00;99506.66;5066286;28;20051;-54
2022/06/30 03:38:41;;;;;;;1999.90;999.90;;;;;;;18.65;100.00;99496.34;5063973;28;20467;-53
2022/06/30 03:41:26;;;;;;;1999.90;999.90;;;;;;;18.69;100.00;99482.81;5064716;28;20395;-53
2022/06/30 03:44:11;;;;;;;1999.90;999.90;;;;;;;18.52;100.00;99482.16;5068107;28;20048;-53
2022/06/30 03:46:56;;;;;;;1999.90;999.90;;;;;;;18.66;100.00;99495.41;5066388;28;20048;-53
2022/06/30 03:49:41;;;;;;;1999.90;999.90;;;;;;;18.71;100.00;99503.06;5065158;28;20052;-53
2022/06/30 03:52:25;;;;;;;1999.90;999.90;;;;;;;18.76;100.00;99512.47;5064940;28;20048;-53
2022/06/30 03:55:11;;;;;;;1999.90;999.90;;;;;;;18.86;100.00;99507.44;5064360;28;20046;-53
2022/06/30 03:57:56;;;;;;;1999.90;999.90;;;;;;;18.91;100.00;99502.66;5063691;28;20052;-53
2022/06/30 04:00:40;;;;;;;1999.90;999.90;;;;;;;18.74;100.00;99490.47;5065293;28;20434;-53
2022/06/30 04:03:25;;;;;;;1999.90;999.90;;;;;;;18.65;100.00;99477.78;5068869;28;20040;-53
2022/06/30 04:06:09;;;;;;;1999.90;999.90;;;;;;;18.74;100.00;99468.41;5063953;28;20406;-53
2022/06/30 04:08:53;;;;;;;1999.90;999.90;;;;;;;18.66;100.00;99468.88;5064763;28;20044;-54
2022/06/30 04:11:38;;;;;;;1999.90;999.90;;;;;;;18.74;100.00;99449.84;5068748;28;20060;-53
2022/06/30 04:14:23;;;;;;;1999.90;999.90;;;;;;;18.73;100.00;99441.03;5066460;28;20094;-53
2022/06/30 04:17:07;;;;;;;1999.90;999.90;;;;;;;18.72;100.00;99433.13;5065629;28;20042;-53
2022/06/30 04:19:52;;;;;;;1999.90;999.90;;;;;;;18.86;100.00;99431.34;5067899;28;20052;-53
2022/06/30 04:22:36;;;;;;;1999.90;999.90;;;;;;;18.89;100.00;99425.00;5066185;28;20051;-54
2022/06/30 04:25:22;;;;;;;1999.90;999.90;;;;;;;18.97;100.00;99422.66;5063160;28;20055;-54
2022/06/30 04:28:06;;;;;;;1999.90;999.90;;;;;;;19.14;100.00;99422.44;5066450;28;20120;-54
2022/06/30 04:33:54;;;;;;;1999.90;999.90;;;;;;;19.18;100.00;99416.91;5066823;28;20505;-54
2022/06/30 04:36:38;;;;;;;1999.90;999.90;;;;;;;19.05;100.00;99415.06;5066345;28;20075;-54
2022/06/30 04:39:23;;;;;;;1999.90;999.90;;;;;;;19.08;100.00;99428.13;5065610;28;20066;-54
2022/06/30 04:42:07;;;;;;;1999.90;999.90;;;;;;;19.18;100.00;99414.25;5067136;28;20044;-53
2022/06/30 04:44:52;;;;;;;1999.90;999.90;;;;;;;19.12;100.00;99412.84;5064175;28;20411;-53
2022/06/30 04:47:37;;;;;;;1999.90;999.90;;;;;;;19.44;100.00;99409.84;5063838;28;20095;-53
2022/06/30 04:50:21;;;;;;;1999.90;999.90;;;;;;;20.19;100.00;99416.13;5065716;28;20098;-54
2022/06/30 04:53:06;;;;;;;1999.90;999.90;;;;;;;19.84;100.00;99408.81;5065023;28;20049;-55
2022/06/30 04:55:50;;;;;;;1999.90;999.90;;;;;;;20.45;100.00;99414.28;5067237;28;20039;-54
2022/06/30 04:58:36;;;;;;;1999.90;999.90;;;;;;;20.40;100.00;99423.53;5064473;28;20079;-54
2022/06/30 05:01:20;;;;;;;1999.90;999.90;;;;;;;20.20;100.00;99422.31;5063869;28;20107;-54
2022/06/30 05:04:05;;;;;;;1999.90;999.90;;;;;;;20.74;100.00;99428.16;5065964;28;20056;-54
2022/06/30 05:06:49;;;;;;;1999.90;999.90;;;;;;;21.03;100.00;99435.81;5064526;28;20094;-54
2022/06/30 05:09:33;;;;;;;1999.90;999.90;;;;;;;21.34;100.00;99442.34;5063267;28;20047;-54
2022/06/30 05:12:18;;;;;;;1999.90;999.90;;;;;;;21.91;100.00;99449.56;5062448;28;20064;-54
2022/06/30 05:15:03;;;;;;;1999.90;999.90;;;;;;;22.29;100.00;99455.53;5061502;28;20981;-54
2022/06/30 05:17:47;;;;;;;1999.90;999.90;;;;;;;22.19;100.00;99459.91;5063017;28;20070;-54
2022/06/30 05:20:32;;;;;;;1999.90;999.90;;;;;;;23.00;100.00;99462.25;5063304;28;20056;-54
2022/06/30 05:23:16;;;;;;;1999.90;999.90;;;;;;;22.91;100.00;99460.34;5063486;28;20072;-54
2022/06/30 05:29:04;;;;;;;1999.90;999.90;;;;;;;22.76;100.00;99466.91;5064892;28;20198;-55
2022/06/30 05:31:49;;;;;;;1999.90;999.90;;;;;;;22.77;100.00;99463.25;5062287;28;20079;-55
2022/06/30 05:34:33;;;;;;;1999.90;999.90;;;;;;;22.70;100.00;99465.56;5061705;28;20637;-54
2022/06/30 05:37:18;;;;;;;1999.90;999.90;;;;;;;22.77;100.00;99473.94;5061710;28;20532;-55
2022/06/30 05:40:03;;;;;;;1999.90;999.90;;;;;;;22.38;100.00;99477.00;5062124;28;20102;-55
2022/06/30 05:42:48;;;;;;;1999.90;999.90;;;;;;;22.67;100.00;99471.16;5058801;28;20676;-55
2022/06/30 05:45:32;;;;;;;1999.90;999.90;;;;;;;22.77;100.00;99469.44;5062206;28;20090;-55
2022/06/30 05:48:18;;;;;;;1999.90;999.90;;;;;;;22.56;100.00;99463.19;5062525;28;20501;-55
2022/06/30 05:51:02;;;;;;;1999.90;999.90;;;;;;;22.99;100.00;99470.41;5060458;28;20087;-55
2022/06/30 05:53:47;;;;;;;1999.90;999.90;;;;;;;23.32;100.00;99474.78;5061256;28;20101;-55
2022/06/30 05:56:31;;;;;;;1999.90;999.90;;;;;;;23.21;100.00;99464.16;5057873;28;20087;-55
2022/06/30 05:59:15;;;;;;;1999.90;999.90;;;;;;;23.22;100.00;99480.03;5062218;28;20079;-55
2022/06/30 06:02:01;;;;;;;1999.90;999.90;;;;;;;23.52;100.00;99481.13;5058422;28;20132;-56
2022/06/30 06:04:45;;;;;;;1999.90;999.90;;;;;;;23.28;100.00;99476.00;5062266;28;20043;-56
2022/06/30 06:07:30;;;;;;;1999.90;999.90;;;;;;;23.68;100.00;99494.06;5063519;28;20110;-55
2022/06/30 06:10:15;;;;;;;1999.90;999.90;;;;;;;23.73;100.00;99482.03;5060019;28;20067;-55
2022/06/30 06:12:59;;;;;;;1999.90;999.90;;;;;;;23.62;100.00;99478.53;5061112;28;20064;-55
2022/06/30 06:15:43;;;;;;;1999.90;999.90;;;;;;;23.72;100.00;99483.03;5061564;28;20383;-55
2022/06/30 06:18:28;;;;;;;1999.90;999.90;;;;;;;24.34;100.00;99481.25;5064561;28;20071;-55
2022/06/30 06:21:13;;;;;;;1999.90;999.90;;;;;;;24.58;100.00;99472.91;5064276;28;20167;-56
2022/06/30 06:23:57;;;;;;;1999.90;999.90;;;;;;;24.91;100.00;99471.72;5065305;28;20521;-55
2022/06/30 06:26:41;;;;;;;1999.90;999.90;;;;;;;25.00;100.00;99471.91;5066220;28;20071;-56
2022/06/30 06:29:26;;;;;;;1999.90;999.90;;;;;;;25.08;100.00;99454.13;5063097;28;20101;-56
2022/06/30 06:32:10;;;;;;;1999.90;999.90;;;;;;;25.18;100.00;99468.41;5063810;28;20125;-55
2022/06/30 06:34:55;;;;;;;1999.90;999.90;;;;;;;25.41;100.00;99465.44;5061759;28;20101;-55
2022/06/30 06:37:39;;;;;;;1999.90;999.90;;;;;;;25.69;100.00;99461.06;5064469;28;20044;-55
2022/06/30 06:40:23;;;;;;;1999.90;999.90;;;;;;;25.79;100.00;99466.41;5067474;28;20151;-55
2022/06/30 06:43:08;;;;;;;1999.90;999.90;;;;;;;25.10;100.00;99476.28;5061481;28;20055;-55
2022/06/30 06:45:53;;;;;;;1999.90;999.90;;;;;;;25.76;100.00;99483.63;5064853;28;20068;-56
2022/06/30 06:48:37;;;;;;;1999.90;999.90;;;;;;;26.17;100.00;99486.97;5061609;28;20086;-55
2022/06/30 06:51:22;;;;;;;1999.90;999.90;;;;;;;26.64;100.00;99495.00;5063754;28;20206;-55
2022/06/30 06:54:06;;;;;;;1999.90;999.90;;;;;;;26.62;100.00;99493.47;5055181;28;20048;-55
2022/06/30 06:56:50;;;;;;;1999.90;999.90;;;;;;;26.31;100.00;99491.88;5059788;28;20441;-55
2022/06/30 06:59:37;;;;;;;1999.90;999.90;;;;;;;26.53;100.00;99488.00;5059969;28;20066;-56
2022/06/30 07:02:22;;;;;;;1999.90;999.90;;;;;;;26.31;100.00;99480.28;5062273;28;20056;-55
2022/06/30 07:05:07;;;;;;;1999.90;999.90;;;;;;;26.33;100.00;99459.53;5057237;28;20481;-55
2022/06/30 07:07:59;;;;;;;1999.90;999.90;;;;;;;26.33;100.00;99459.53;5060985;28;20535;-55
2022/06/30 07:10:44;;;;;;;1999.90;999.90;;;;;;;26.87;100.00;99473.13;5061543;28;20094;-55
2022/06/30 07:13:30;;;;;;;1999.90;999.90;;;;;;;26.78;100.00;99458.78;5063619;28;20114;-55
2022/06/30 07:16:14;;;;;;;1999.90;999.90;;;;;;;27.20;100.00;99451.00;5064562;28;20106;-55
2022/06/30 07:18:59;;;;;;;1999.90;999.90;;;;;;;27.32;100.00;99448.91;5063063;28;21673;-55
2022/06/30 07:21:44;;;;;;;1999.90;999.90;;;;;;;27.22;100.00;99454.38;5061024;28;20472;-55
2022/06/30 07:24:28;;;;;;;1999.90;999.90;;;;;;;27.36;100.00;99454.81;5061074;28;20522;-55
2022/06/30 07:27:12;;;;;;;1999.90;999.90;;;;;;;27.32;100.00;99451.59;5064758;28;20064;-55
2022/06/30 07:29:57;;;;;;;1999.90;999.90;;;;;;;27.77;100.00;99453.34;5063182;28;20090;-55
2022/06/30 07:32:42;;;;;;;1999.90;999.90;;;;;;;27.61;100.00;99462.09;5060947;28;20055;-55
2022/06/30 07:35:26;;;;;;;1999.90;999.90;;;;;;;27.57;100.00;99462.59;5060170;28;20094;-55
2022/06/30 07:38:10;;;;;;;1999.90;999.90;;;;;;;28.29;100.00;99455.19;5063025;28;20056;-56
2022/06/30 07:40:55;;;;;;;1999.90;999.90;;;;;;;28.73;100.00;99455.03;5059930;28;20051;-56
2022/06/30 07:43:40;;;;;;;1999.90;999.90;;;;;;;28.28;100.00;99461.59;5061557;28;20083;-56
2022/06/30 07:46:24;;;;;;;1999.90;999.90;;;;;;;28.02;100.00;99458.91;5064350;28;20075;-56
2022/06/30 07:49:08;;;;;;;1999.90;999.90;;;;;;;27.67;100.00;99463.34;5062419;28;20072;-56
2022/06/30 07:51:54;;;;;;;1999.90;999.90;;;;;;;28.53;100.00;99454.47;5063467;28;20051;-56
2022/06/30 07:54:38;;;;;;;1999.90;999.90;;;;;;;28.58;100.00;99450.28;5064066;28;20044;-55
2022/06/30 07:57:23;;;;;;;1999.90;999.90;;;;;;;28.59;100.00;99451.97;5062431;28;20522;-56
2022/06/30 08:00:09;;;;;;;1999.90;999.90;;;;;;;28.74;100.00;99443.28;5060487;28;20041;-56
2022/06/30 08:02:56;;;;;;;1999.90;999.90;;;;;;;29.39;100.00;99439.88;5061720;28;20194;-56
2022/06/30 08:05:41;;;;;;;1999.90;999.90;;;;;;;29.07;100.00;99453.16;5062176;28;20093;-55
2022/06/30 08:08:25;;;;;;;1999.90;999.90;;;;;;;29.76;100.00;99452.88;5061919;28;20041;-55
2022/06/30 08:11:11;;;;;;;1999.90;999.90;;;;;;;28.99;100.00;99460.34;5061061;28;20045;-55
2022/06/30 08:13:55;;;;;;;1999.90;999.90;;;;;;;29.48;100.00;99450.50;5060373;28;20119;-55
2022/06/30 08:16:40;;;;;;;1999.90;999.90;;;;;;;29.86;100.00;99456.22;5066366;28;20380;-55
2022/06/30 08:19:24;;;;;;;1999.90;999.90;;;;;;;29.93;100.00;99451.84;5067653;28;20076;-56
2022/06/30 08:22:09;;;;;;;1999.90;999.90;;;;;;;30.30;100.00;99446.88;5062527;28;20933;-55
2022/06/30 08:24:55;;;;;;;1999.90;999.90;;;;;;;29.59;100.00;99452.00;5065356;28;20045;-56
2022/06/30 08:27:39;;;;;;;1999.90;999.90;;;;;;;30.00;100.00;99442.03;5063548;28;20065;-55
2022/06/30 08:30:23;;;;;;;1999.90;999.90;;;;;;;30.36;100.00;99444.31;5066965;28;20044;-56
2022/06/30 08:33:08;;;;;;;1999.90;999.90;;;;;;;30.36;100.00;99446.19;5063791;28;20056;-56
2022/06/30 08:35:52;;;;;;;1999.90;999.90;;;;;;;30.30;100.00;99439.63;5061518;28;20144;-56
2022/06/30 08:38:37;;;;;;;1999.90;999.90;;;;;;;29.37;100.00;99437.34;5063061;28;20069;-56
2022/06/30 08:44:25;;;;;;;1999.90;999.90;;;;;;;28.78;100.00;99436.53;5061835;28;20076;-56
2022/06/30 08:47:11;;;;;;;1999.90;999.90;;;;;;;28.43;100.00;99447.34;5064364;28;20052;-55
2022/06/30 08:49:56;;;;;;;1999.90;999.90;;;;;;;30.89;100.00;99453.56;5063181;28;20088;-56
2022/06/30 08:52:52;;;;;;;1999.90;999.90;;;;;;;29.25;100.00;99463.81;5062918;28;20049;-56
2022/06/30 08:55:37;;;;;;;1999.90;999.90;;;;;;;30.15;100.00;99466.44;5064529;28;20060;-57
2022/06/30 08:58:22;;;;;;;1999.90;999.90;;;;;;;30.84;100.00;99469.47;5063843;28;20072;-56
2022/06/30 09:01:08;;;;;;;1999.90;999.90;;;;;;;30.79;100.00;99474.56;5061105;28;20084;-56
2022/06/30 09:03:53;;;;;;;1999.90;999.90;;;;;;;30.85;100.00;99470.31;5063357;28;20098;-56
2022/06/30 09:06:57;;;;;;;1999.90;999.90;;;;;;;30.78;100.00;99467.47;5060222;28;20101;-56
2022/06/30 09:09:41;;;;;;;1999.90;999.90;;;;;;;30.08;100.00;99468.16;5063013;28;20059;-56
2022/06/30 09:12:29;;;;;;;1999.90;999.90;;;;;;;29.87;100.00;99465.16;5062569;28;20087;-57
2022/06/30 09:15:14;;;;;;;1999.90;999.90;;;;;;;30.58;100.00;99464.34;5061066;28;20565;-56
2022/06/30 09:18:00;;;;;;;1999.90;999.90;;;;;;;31.32;100.00;99461.22;5061893;28;20131;-56
2022/06/30 09:20:45;;;;;;;1999.90;999.90;;;;;;;32.20;100.00;99459.78;5059942;28;20064;-57
2022/06/30 09:23:30;;;;;;;1999.90;999.90;;;;;;;31.76;100.00;99458.69;5059128;28;20051;-56
2022/06/30 09:26:21;;;;;;;1999.90;999.90;;;;;;;32.44;97.83;99454.13;5063224;28;20064;-57
2022/06/30 09:29:07;;;;;;;1999.90;999.90;;;;;;;32.52;100.00;99450.47;5062865;28;20041;-57
2022/06/30 09:32:10;;;;;;;1999.90;999.90;;;;;;;32.17;100.00;99436.63;5060779;28;20101;-57
2022/06/30 09:35:08;;;;;;;1999.90;999.90;;;;;;;32.41;100.00;99440.94;5061736;28;20499;-57
2022/06/30 09:38:07;;;;;;;1999.90;999.90;;;;;;;32.61;97.12;99437.66;5061470;28;20044;-57
2022/06/30 09:41:01;;;;;;;1999.90;999.90;;;;;;;33.48;95.39;99427.56;5062290;28;20415;-57
2022/06/30 09:43:45;;;;;;;1999.90;999.90;;;;;;;33.02;98.35;99425.25;5063958;28;20454;-57
2022/06/30 09:46:30;;;;;;;1999.90;999.90;;;;;;;32.64;96.46;99429.16;5065914;28;20063;-58
2022/06/30 09:49:28;;;;;;;1999.90;999.90;;;;;;;32.90;98.08;99425.91;5058654;28;20154;-57
2022/06/30 09:52:21;;;;;;;1999.90;999.90;;;;;;;32.57;94.93;99421.78;5066522;28;20102;-57
2022/06/30 09:55:08;;;;;;;1999.90;999.90;;;;;;;32.50;94.98;99414.56;5062445;28;20054;-58
2022/06/30 09:57:53;;;;;;;1999.90;999.90;;;;;;;33.02;89.46;99416.25;5063056;28;20049;-57
2022/06/30 10:00:46;;;;;;;1999.90;999.90;;;;;;;32.39;92.20;99415.03;5068425;28;20109;-58
2022/06/30 10:03:30;;;;;;;1999.90;999.90;;;;;;;32.23;98.58;99421.50;5061831;28;20097;-58
2022/06/30 10:06:17;;;;;;;1999.90;999.90;;;;;;;33.05;89.46;99407.72;5062482;28;20053;-58
2022/06/30 10:09:01;;;;;;;1999.90;999.90;;;;;;;32.83;87.13;99401.44;5063826;28;20048;-57
2022/06/30 10:11:47;;;;;;;1999.90;999.90;;;;;;;32.67;89.29;99410.63;5066683;28;20048;-58
2022/06/30 10:14:34;;;;;;;1999.90;999.90;;;;;;;33.01;86.48;99406.44;5061407;28;20557;-58
2022/06/30 10:17:21;;;;;;;1999.90;999.90;;;;;;;33.21;86.41;99412.88;5067036;28;20048;-57
2022/06/30 10:20:07;;;;;;;1999.90;999.90;;;;;;;32.95;85.30;99409.88;5063580;28;20045;-58
2022/06/30 10:22:51;;;;;;;1999.90;999.90;;;;;;;34.23;80.48;99408.06;5062305;28;20060;-57
2022/06/30 10:25:36;;;;;;;1999.90;999.90;;;;;;;33.55;82.04;99399.66;5062878;28;20060;-57
2022/06/30 10:28:24;;;;;;;1999.90;999.90;;;;;;;33.55;84.29;99405.94;5059732;28;20106;-57
2022/06/30 10:31:15;;;;;;;1999.90;999.90;;;;;;;33.66;85.47;99389.09;5061388;28;20051;-57
2022/06/30 10:34:12;;;;;;;1999.90;999.90;;;;;;;33.55;84.56;99392.34;5062935;28;20063;-57
2022/06/30 10:37:39;;;;;;;1999.90;999.90;;;;;;;33.14;84.06;99392.16;5060234;28;20048;-57
2022/06/30 10:40:46;;;;;;;1999.90;999.90;;;;;;;33.69;84.20;99396.00;5059565;28;20056;-57
2022/06/30 10:43:31;;;;;;;1999.90;999.90;;;;;;;34.88;75.64;99402.06;5060054;28;20813;-57
2022/06/30 10:46:15;;;;;;;1999.90;999.90;;;;;;;33.92;79.57;99401.16;5060565;28;20036;-57
2022/06/30 10:49:06;;;;;;;1999.90;999.90;;;;;;;33.37;79.23;99394.66;5063915;28;20048;-57
2022/06/30 10:51:55;;;;;;;1999.90;999.90;;;;;;;33.54;79.57;99392.53;5060622;28;20071;-57
2022/06/30 10:54:43;;;;;;;1999.90;999.90;;;;;;;33.95;78.95;99395.34;5065970;28;20509;-57
2022/06/30 10:58:04;;;;;;;1999.90;999.90;;;;;;;34.04;83.83;99394.16;5061570;28;20076;-57
2022/06/30 11:00:56;;;;;;;1999.90;999.90;;;;;;;33.79;77.64;99385.63;5062224;28;20056;-56
2022/06/30 11:03:49;;;;;;;1999.90;999.90;;;;;;;33.95;80.33;99385.31;5062828;28;20068;-57
2022/06/30 11:07:01;;;;;;;1999.90;999.90;;;;;;;34.28;77.04;99383.84;5062622;28;20473;-57
2022/06/30 11:09:54;;;;;;;1999.90;999.90;;;;;;;34.81;73.30;99379.47;5061483;28;20082;-57
2022/06/30 11:12:39;;;;;;;1999.90;999.90;;;;;;;34.77;76.40;99364.59;5058394;28;20064;-58
2022/06/30 11:15:50;;;;;;;1999.90;999.90;;;;;;;34.69;73.85;99374.84;5056420;28;20063;-57
2022/06/30 11:18:35;;;;;;;1999.90;999.90;;;;;;;34.44;71.99;99378.88;5060041;28;20106;-57
2022/06/30 11:21:20;;;;;;;1999.90;999.90;;;;;;;34.76;73.21;99371.06;5059052;28;20076;-57
2022/06/30 11:24:06;;;;;;;1999.90;999.90;;;;;;;35.02;75.08;99364.88;5061848;28;20044;-57
2022/06/30 11:30:05;;;;;;;1999.90;999.90;;;;;;;35.22;71.53;99364.88;5060807;28;20172;-59
2022/06/30 11:32:50;;;;;;;1999.90;999.90;;;;;;;34.67;68.06;99366.88;5061063;28;20067;-58
2022/06/30 11:35:34;;;;;;;1999.90;999.90;;;;;;;34.61;68.48;99363.09;5061728;28;20049;-58
2022/06/30 11:38:26;;;;;;;1999.90;999.90;;;;;;;35.58;68.21;99358.19;5065417;28;20065;-58
2022/06/30 11:44:13;;;;;;;1999.90;999.90;;;;;;;34.87;69.74;99346.00;5056285;28;20090;-59
2022/06/30 11:47:07;;;;;;;1999.90;999.90;;;;;;;34.27;68.72;99353.13;5060528;28;20049;-58
2022/06/30 11:49:53;;;;;;;1999.90;999.90;;;;;;;34.75;71.38;99353.09;5063939;28;20566;-57
2022/06/30 11:52:41;;;;;;;1999.90;999.90;;;;;;;34.40;71.48;99357.75;5069150;28;20061;-59
2022/06/30 11:55:27;;;;;;;1999.90;999.90;;;;;;;34.21;73.08;99348.50;5065683;28;20151;-58
2022/06/30 11:58:11;;;;;;;1999.90;999.90;;;;;;;33.74;73.80;99340.06;5063988;28;20056;-57
2022/06/30 12:00:56;;;;;;;1999.90;999.90;;;;;;;34.25;72.23;99336.16;5067658;28;20105;-56
2022/06/30 12:03:43;;;;;;;1999.90;999.90;;;;;;;34.16;70.35;99331.97;5071042;28;20473;-57
2022/06/30 12:06:27;;;;;;;1999.90;999.90;;;;;;;34.65;70.33;99339.91;5070362;28;20090;-58
2022/06/30 12:09:11;;;;;;;1999.90;999.90;;;;;;;34.77;72.35;99344.72;5069531;28;20051;-58
2022/06/30 12:12:00;;;;;;;1999.90;999.90;;;;;;;34.28;70.34;99346.63;5063068;28;20379;-59
2022/06/30 12:14:45;;;;;;;1999.90;999.90;;;;;;;33.84;69.27;99337.00;5065329;28;20514;-59
2022/06/30 12:17:46;;;;;;;1999.90;999.90;;;;;;;34.02;70.68;99343.78;5066263;28;20371;-58
2022/06/30 12:20:31;;;;;;;1999.90;999.90;;;;;;;34.03;72.26;99332.75;5067840;28;20055;-58
2022/06/30 12:23:15;;;;;;;1999.90;999.90;;;;;;;34.16;70.13;99332.81;5063832;28;20045;-58
2022/06/30 12:25:59;;;;;;;1999.90;999.90;;;;;;;34.23;68.40;99338.25;5067357;28;20066;-57
2022/06/30 12:28:55;;;;;;;1999.90;999.90;;;;;;;34.24;72.65;99339.09;5067029;28;20051;-57
2022/06/30 12:31:39;;;;;;;1999.90;999.90;;;;;;;34.26;72.30;99342.47;5063768;28;20052;-59